William J. Weber — WDC6537 — position and weather

sailwx.info

Track history (hours):
 
Tides and Currents Weather Stations Pressure Air Temp Water Temp Dewpoint Dewpoint Depression Visibility Wind Speed Wind Dir Waves Ship Positions

William J. Weber

Owner: AMERICAN COMMERCIAL BARGE LINE LLC, Jefferesonville, IN. More information available from US FCC via Universal Licensing System and Coast Guard Vessel Documentation Center.

Last reported at 2015-Mar-20 19:33 UTC. Time now 2015-Mar-29 04:27 UTC.
Position N 29°29' W 094°52'.
Warning: this ship's position is 8 days out of date.

Length 23 m.

Type: Towing. MMSI: 367057640.

Date/timePositionNaut miles runAvg speedWind from/ knotsBaromVisibWave heightAir tempDewpointWater temp
2015-Mar-20 19:33N 29°29' W 094°52'8 8.2
2015-Mar-20 18:33N 29°36' W 094°57'8 7.4
2015-Mar-20 17:33N 29°42' W 095°01'5 5.2
2015-Mar-20 16:33N 29°46' W 095°06'1 0.7
2015-Mar-20 15:33N 29°46' W 095°06'1 0.7
2015-Mar-20 14:33N 29°46' W 095°05'0 0.0
2015-Mar-20 13:33N 29°46' W 095°05'0 0.0
2015-Mar-20 07:21N 29°46' W 095°05'0 0.0
2015-Mar-20 06:32N 29°46' W 095°05'1 0.7
2015-Mar-20 05:30N 29°46' W 095°06'1 0.7
2015-Mar-20 04:30N 29°46' W 095°05'0 0.0
2015-Mar-20 02:16N 29°46' W 095°06'1 1.6
2015-Mar-20 01:22N 29°45' W 095°06'9 0.9
2015-Mar-19 15:33N 29°43' W 095°16'3 2.6
2015-Mar-19 14:33N 29°44' W 095°13'6 5.6
2015-Mar-19 13:33N 29°44' W 095°07'2 1.8
2015-Mar-19 12:23N 29°46' W 095°06'0 0.1
2015-Mar-19 11:24N 29°46' W 095°05'0 0.0
2015-Mar-18 22:31N 29°46' W 095°05'0 0.4
2015-Mar-18 21:33N 29°46' W 095°05'5 4.6
2015-Mar-18 20:33N 29°43' W 095°01'7 7.3
2015-Mar-18 19:33N 29°37' W 094°57'8 8.0
2015-Mar-18 18:31N 29°30' W 094°52'  
Track history (hours):
 
Tides and Currents Weather Stations Pressure Air Temp Water Temp Dewpoint Dewpoint Depression Visibility Wind Speed Wind Dir Waves Ship Positions

William J. Weber

Owner: AMERICAN COMMERCIAL BARGE LINE LLC, Jefferesonville, IN. More information available from US FCC via Universal Licensing System and Coast Guard Vessel Documentation Center.

Last reported at 2015-Mar-20 19:33 UTC. Time now 2015-Mar-29 04:27 UTC.
Position N 29°29' W 094°52'.
Warning: this ship's position is 8 days out of date.

Length 23 m.

Type: Towing. MMSI: 367057640.

Date/timePositionNaut miles runAvg speedWind from/ knotsBaromVisibWave heightAir tempDewpointWater temp
2015-Mar-20 19:33N 29°29' W 094°52'8 8.2
2015-Mar-20 18:33N 29°36' W 094°57'8 7.4
2015-Mar-20 17:33N 29°42' W 095°01'5 5.2
2015-Mar-20 16:33N 29°46' W 095°06'1 0.7
2015-Mar-20 15:33N 29°46' W 095°06'1 0.7
2015-Mar-20 14:33N 29°46' W 095°05'0 0.0
2015-Mar-20 13:33N 29°46' W 095°05'0 0.0
2015-Mar-20 07:21N 29°46' W 095°05'0 0.0
2015-Mar-20 06:32N 29°46' W 095°05'1 0.7
2015-Mar-20 05:30N 29°46' W 095°06'1 0.7
2015-Mar-20 04:30N 29°46' W 095°05'0 0.0
2015-Mar-20 02:16N 29°46' W 095°06'1 1.6
2015-Mar-20 01:22N 29°45' W 095°06'9 0.9
2015-Mar-19 15:33N 29°43' W 095°16'3 2.6
2015-Mar-19 14:33N 29°44' W 095°13'6 5.6
2015-Mar-19 13:33N 29°44' W 095°07'2 1.8
2015-Mar-19 12:23N 29°46' W 095°06'0 0.1
2015-Mar-19 11:24N 29°46' W 095°05'0 0.0
2015-Mar-18 22:31N 29°46' W 095°05'0 0.4
2015-Mar-18 21:33N 29°46' W 095°05'5 4.6
2015-Mar-18 20:33N 29°43' W 095°01'7 7.3
2015-Mar-18 19:33N 29°37' W 094°57'8 8.0
2015-Mar-18 18:31N 29°30' W 094°52'  

Dump ship's entire track history